Hauptseite
METAR-TAF:

METAR-TAF

Flughäfen :

Flughafen Rarotonga

Rarotonga, Cookinseln

Breite: 21-12S, Länge: 159-49W, Höhe: 7 m

Beobachtung

Neuester Wetterbericht von vor 12 Minuten, um 05:30 UTC
Wind 2 kt aus Ost
Temperatur 23°C
Luftfeuchtigkeit 73%
Luftdruck 1017 hPa
Sichtweite 10 km oder mehr

METAR: NCRG 100530Z AUTO 10002KT 9999 BKN060/// 23/18 Q1017

Zeit: 19:42 (05:42 UTC)

Prognose

Neuester Wetterbericht von vor 33 Minuten, um 05:09 UTC
Gültige Prognose vom 10 um 06 UTC bis 11 um 06 UTC
Wind 8 kt aus Süd
Sichtweite 10 km oder mehr
Aufgelockert bewölkt in der Höhe von 2000 ft
Durchbrochene Bewölkung in der Höhe von 4500 ft
Wahrscheinlichkeit 40% :
Zeitweise
vom 10 um 19 UTC bis 11 um 06 UTC
Wind 15 kt aus Süd, Böen bis zu 25 kt

TAF: NCRG 100509Z 1006/1106 17008KT 9999 SCT020 BKN045 PROB40 TEMPO 1019/1106 17015G25KT

Wetterbeobachtungen und Prognosen von mehr als 4000 Flughäfen (METAR und TAF Bericht).

Die verfügbaren Stationen werden durch gelbe und rote Markierungen auf der Karte dargestellt.

Führen Sie die Maus auf sie, um den Namen der Station zu sehen.

Darauf klicken, um die Beobachtung von Wetterbeobachtungen und Prognosen zu sehen.

Um die Karte zu ändern : klicken Sie auf den grünen Tasten mit einem schwarzen Kreuz Zum Vergrößern, auf den grünen Button mit einem Gedankenstrich zu verkleinern, oder auf die grünen Pfeile für benachbarte Karten.


METAR-TAF: